Time;durP1;ratioP1;P1;durP2;ratioP2;P2;SDS_P1;SDS_P2;PMS_P1;PMS_P2;Temp;Humidity;BMP_temperature;BMP_pressure;BME280_temperature;BME280_humidity;BME280_pressure;Samples;Min_cycle;Max_cycle;Signal;HPM_P1;HPM_P2
2021/06/05 00:00:38;;;;;;;2.28;1.10;;;;;;;17.23;74.20;97287.59;5011576;28;20499;-62
2021/06/05 00:03:05;;;;;;;3.42;1.00;;;;;;;17.28;74.65;97282.47;4981464;28;20042;-62
2021/06/05 00:05:41;;;;;;;2.70;1.20;;;;;;;17.13;75.30;97272.59;4989067;28;20060;-61
2021/06/05 00:08:08;;;;;;;2.88;1.10;;;;;;;17.04;76.20;97278.53;4978653;28;20058;-60
2021/06/05 00:10:38;;;;;;;4.85;1.50;;;;;;;16.89;76.83;97280.50;4983667;28;20492;-58
2021/06/05 00:13:08;;;;;;;2.90;1.20;;;;;;;16.78;77.46;97277.69;4978802;28;20050;-62
2021/06/05 00:15:39;;;;;;;2.20;1.17;;;;;;;16.79;78.01;97287.56;4983074;28;20125;-62
2021/06/05 00:18:05;;;;;;;3.67;1.20;;;;;;;16.66;79.59;97289.13;4979357;28;20231;-61
2021/06/05 00:20:33;;;;;;;4.88;1.40;;;;;;;16.63;81.04;97295.44;4982649;28;20074;-61
2021/06/05 00:23:00;;;;;;;10.02;2.00;;;;;;;16.33;86.05;97296.56;4981401;28;20066;-62
2021/06/05 00:25:29;;;;;;;8.23;1.95;;;;;;;15.96;88.99;97308.66;4995107;28;20042;-62
2021/06/05 00:27:55;;;;;;;1.38;0.85;;;;;;;15.85;88.67;97308.59;5001221;28;20046;-61
2021/06/05 00:30:21;;;;;;;4.18;1.20;;;;;;;15.73;89.09;97308.88;4997381;28;20041;-61
2021/06/05 00:32:47;;;;;;;6.45;1.10;;;;;;;15.68;89.27;97303.72;5000378;28;20057;-61
2021/06/05 00:35:12;;;;;;;2.53;1.00;;;;;;;15.66;90.22;97301.38;4979754;28;20042;-62
2021/06/05 00:37:38;;;;;;;3.85;1.00;;;;;;;15.79;90.23;97301.88;4999795;28;20129;-61
2021/06/05 00:40:06;;;;;;;6.97;3.33;;;;;;;15.85;90.49;97294.00;4999145;28;20041;-64
2021/06/05 00:42:31;;;;;;;6.90;2.35;;;;;;;15.65;90.97;97291.50;4999507;28;20145;-63
2021/06/05 00:44:57;;;;;;;4.90;1.45;;;;;;;15.56;92.72;97293.81;5002360;28;20133;-63
2021/06/05 00:47:22;;;;;;;4.10;1.15;;;;;;;15.60;93.18;97286.34;4979307;28;20052;-63
2021/06/05 00:49:48;;;;;;;4.72;1.55;;;;;;;15.51;93.72;97296.94;5001017;28;20073;-61
2021/06/05 00:52:20;;;;;;;6.60;2.03;;;;;;;15.48;94.52;97294.94;4996334;28;20054;-63
2021/06/05 00:54:46;;;;;;;4.43;1.60;;;;;;;15.45;94.34;97302.03;5002705;28;20045;-64
2021/06/05 00:57:12;;;;;;;14.23;7.53;;;;;;;15.37;94.90;97299.59;4993651;28;20515;-63
2021/06/05 00:59:38;;;;;;;4.95;1.50;;;;;;;15.57;93.96;97309.19;4985519;28;20040;-63
2021/06/05 01:02:04;;;;;;;2.47;1.30;;;;;;;15.66;91.93;97308.84;4985198;28;20053;-61
2021/06/05 01:04:30;;;;;;;4.72;1.30;;;;;;;15.66;92.22;97303.31;4984732;28;20047;-63
2021/06/05 01:07:04;;;;;;;6.38;1.80;;;;;;;15.61;91.96;97309.19;4980827;28;20125;-63
2021/06/05 01:09:44;;;;;;;3.65;1.50;;;;;;;15.54;92.72;97309.16;4980028;28;20044;-61
2021/06/05 01:12:59;;;;;;;4.72;1.52;;;;;;;15.45;93.61;97307.53;4977943;28;20407;-61
2021/06/05 01:15:40;;;;;;;6.05;1.60;;;;;;;15.56;93.65;97307.63;4961170;28;20050;-62
2021/06/05 01:18:11;;;;;;;5.47;1.42;;;;;;;15.69;93.08;97299.78;4976950;28;20407;-62
2021/06/05 01:20:49;;;;;;;6.07;2.33;;;;;;;15.71;93.14;97297.44;4981664;28;20118;-61
2021/06/05 01:23:22;;;;;;;5.22;1.13;;;;;;;15.84;92.76;97295.16;4978303;28;20046;-61
2021/06/05 01:26:09;;;;;;;3.33;1.42;;;;;;;15.67;92.17;97293.88;4987126;28;20034;-61
2021/06/05 01:29:13;;;;;;;4.78;1.27;;;;;;;15.58;92.82;97291.44;4981492;28;20581;-62
2021/06/05 01:31:43;;;;;;;3.25;1.42;;;;;;;15.19;93.94;97282.91;4979877;28;20038;-61
2021/06/05 01:34:10;;;;;;;4.68;2.00;;;;;;;15.04;95.33;97279.25;4975394;28;20038;-62
2021/06/05 01:36:43;;;;;;;6.13;1.88;;;;;;;14.96;95.78;97278.38;4975500;28;20050;-63
2021/06/05 01:39:11;;;;;;;4.40;1.60;;;;;;;14.75;97.21;97275.44;4973123;28;20141;-62
2021/06/05 01:41:38;;;;;;;4.63;1.92;;;;;;;14.69;97.83;97269.47;4981865;28;20077;-62
2021/06/05 01:44:06;;;;;;;8.30;2.50;;;;;;;14.56;99.37;97277.22;4977316;28;20419;-62
2021/06/05 01:46:36;;;;;;;6.50;2.10;;;;;;;14.53;100.00;97276.00;4981800;28;20078;-62
2021/06/05 01:49:01;;;;;;;4.63;2.22;;;;;;;14.61;100.00;97263.13;4978761;28;20543;-61
2021/06/05 01:51:27;;;;;;;5.63;2.00;;;;;;;14.64;100.00;97267.06;4972658;28;20074;-64
2021/06/05 01:54:18;;;;;;;7.10;2.05;;;;;;;14.61;99.68;97257.59;4983819;28;20046;-64
2021/06/05 01:56:52;;;;;;;4.20;2.03;;;;;;;14.71;99.93;97259.69;4982475;28;20046;-63
2021/06/05 01:59:19;;;;;;;4.60;1.88;;;;;;;14.81;99.85;97251.88;4988402;28;20161;-62
2021/06/05 02:01:46;;;;;;;6.45;2.42;;;;;;;15.00;99.58;97259.09;4999817;28;20046;-62
2021/06/05 02:04:13;;;;;;;5.47;1.48;;;;;;;15.12;98.37;97245.00;4995919;28;20419;-63
2021/06/05 02:06:45;;;;;;;2.90;1.50;;;;;;;15.13;97.77;97237.53;5001494;28;20045;-63
2021/06/05 02:09:13;;;;;;;4.65;1.70;;;;;;;15.35;97.55;97227.44;4995809;28;20041;-64
2021/06/05 02:11:44;;;;;;;3.45;1.58;;;;;;;15.44;97.08;97230.63;4998589;28;20133;-63
2021/06/05 02:14:18;;;;;;;5.68;1.42;;;;;;;15.38;96.09;97227.44;4992177;28;20523;-63
2021/06/05 02:16:50;;;;;;;5.80;2.25;;;;;;;14.84;98.70;97227.09;5004631;28;20049;-63
2021/06/05 02:19:22;;;;;;;4.88;2.15;;;;;;;14.54;100.00;97229.94;4983332;28;20365;-63
2021/06/05 02:21:48;;;;;;;6.38;1.83;;;;;;;14.47;100.00;97221.59;4980214;28;20054;-62
2021/06/05 02:24:22;;;;;;;3.15;1.90;;;;;;;14.45;100.00;97223.94;4975105;28;20064;-63
2021/06/05 02:26:49;;;;;;;6.28;1.98;;;;;;;14.72;100.00;97219.88;4979654;28;20495;-62
2021/06/05 02:29:18;;;;;;;4.57;2.13;;;;;;;14.97;99.52;97221.28;4974971;28;20159;-61
2021/06/05 02:31:44;;;;;;;3.83;2.08;;;;;;;15.06;98.93;97219.75;4956771;28;20667;-63
2021/06/05 02:34:14;;;;;;;3.50;1.75;;;;;;;15.12;98.25;97206.38;4975125;28;20415;-63
2021/06/05 02:36:43;;;;;;;6.25;2.75;;;;;;;14.96;98.18;97205.88;4980817;28;20482;-63
2021/06/05 02:39:09;;;;;;;4.90;1.85;;;;;;;14.99;98.78;97207.88;4975401;28;20065;-64
2021/06/05 02:41:36;;;;;;;3.45;1.95;;;;;;;14.89;99.09;97215.69;4978191;28;20066;-62
2021/06/05 02:44:02;;;;;;;5.93;2.53;;;;;;;14.79;99.94;97205.38;4979786;28;20038;-62
2021/06/05 02:46:32;;;;;;;5.10;2.33;;;;;;;14.57;100.00;97195.28;4977637;28;20065;-64
2021/06/05 02:48:59;;;;;;;;;;;;;;;14.44;100.00;97201.13;4980713;28;20104;-62
2021/06/05 02:51:36;;;;;;;7.40;3.75;;;;;;;14.52;100.00;97188.19;4975552;28;19925;-62
2021/06/05 02:54:04;;;;;;;3.75;2.47;;;;;;;14.54;100.00;97191.34;4977464;28;20046;-62
2021/06/05 02:56:29;;;;;;;7.10;3.28;;;;;;;14.47;100.00;97191.28;4976631;28;20399;-63
2021/06/05 02:58:55;;;;;;;5.70;3.13;;;;;;;14.41;100.00;97185.34;4980836;28;20034;-64
2021/06/05 03:01:20;;;;;;;7.95;3.60;;;;;;;14.47;100.00;97186.56;4974483;28;20046;-64
2021/06/05 03:03:46;;;;;;;6.70;3.72;;;;;;;14.53;100.00;97190.56;4979988;28;20057;-62
2021/06/05 03:06:12;;;;;;;10.13;3.22;;;;;;;14.59;100.00;97188.28;4978178;28;20039;-62
2021/06/05 03:08:41;;;;;;;11.18;4.25;;;;;;;14.68;100.00;97182.44;4989726;28;20051;-64
2021/06/05 03:11:14;;;;;;;8.50;3.63;;;;;;;14.79;100.00;97177.00;4973300;28;20047;-63
2021/06/05 03:13:39;;;;;;;6.70;3.78;;;;;;;14.65;100.00;97178.47;4978425;28;20043;-63
2021/06/05 03:16:05;;;;;;;5.75;3.35;;;;;;;14.61;100.00;97180.41;4975463;28;20042;-63
2021/06/05 03:18:31;;;;;;;10.00;3.78;;;;;;;14.61;100.00;97182.38;4977970;28;20715;-62
2021/06/05 03:20:57;;;;;;;5.97;3.10;;;;;;;14.57;100.00;97176.81;4980202;28;20376;-64
2021/06/05 03:23:25;;;;;;;9.82;4.30;;;;;;;14.58;100.00;97172.13;4974845;28;20157;-61
2021/06/05 03:25:51;;;;;;;8.93;3.58;;;;;;;14.62;100.00;97172.94;4980159;28;20038;-62
2021/06/05 03:28:19;;;;;;;7.65;4.18;;;;;;;14.77;100.00;97176.59;4976971;28;20077;-62
2021/06/05 03:30:44;;;;;;;7.00;2.90;;;;;;;14.81;100.00;97171.91;4966739;28;20094;-63
2021/06/05 03:33:11;;;;;;;5.88;3.70;;;;;;;14.77;100.00;97160.84;4961899;28;20046;-63
2021/06/05 03:35:37;;;;;;;7.22;3.67;;;;;;;14.77;100.00;97162.81;4984864;28;20068;-62
2021/06/05 03:38:05;;;;;;;7.53;3.17;;;;;;;14.80;100.00;97162.03;4980319;28;20123;-61
2021/06/05 03:40:33;;;;;;;8.20;4.35;;;;;;;14.86;100.00;97163.28;4980778;28;20042;-63
2021/06/05 03:42:59;;;;;;;9.82;4.05;;;;;;;14.85;100.00;97156.94;4974991;28;20133;-64
2021/06/05 03:45:25;;;;;;;5.95;3.25;;;;;;;15.13;100.00;97152.81;4976723;28;20050;-64
2021/06/05 03:47:53;;;;;;;7.10;3.13;;;;;;;15.21;100.00;97157.16;4980531;28;20050;-64
2021/06/05 03:50:21;;;;;;;8.65;3.75;;;;;;;15.01;100.00;97144.84;4977615;28;20076;-64
2021/06/05 03:52:46;;;;;;;10.25;4.22;;;;;;;15.10;100.00;97145.28;4982319;28;20176;-62
2021/06/05 03:55:13;;;;;;;6.93;2.90;;;;;;;15.26;100.00;97137.50;4978155;28;20046;-63
2021/06/05 03:57:39;;;;;;;6.13;3.72;;;;;;;15.34;100.00;97134.75;4983066;28;20050;-63
2021/06/05 04:00:07;;;;;;;6.05;3.33;;;;;;;15.33;100.00;97144.25;4976848;28;20567;-62
2021/06/05 04:02:32;;;;;;;6.00;3.38;;;;;;;15.16;100.00;97127.22;4979986;28;20069;-63
2021/06/05 04:04:58;;;;;;;4.82;3.22;;;;;;;15.20;100.00;97128.00;4983446;28;20575;-62
2021/06/05 04:07:23;;;;;;;8.57;2.72;;;;;;;15.36;100.00;97124.94;4977535;28;20463;-63
2021/06/05 04:09:49;;;;;;;6.22;3.25;;;;;;;15.32;99.89;97128.84;4982033;28;20504;-63
2021/06/05 04:12:14;;;;;;;8.27;2.90;;;;;;;15.17;99.76;97126.03;4977866;28;20046;-62
2021/06/05 04:14:41;;;;;;;7.82;3.67;;;;;;;15.03;100.00;97134.22;4982057;28;20129;-63
2021/06/05 04:17:08;;;;;;;6.60;3.67;;;;;;;14.93;100.00;97127.47;4974644;28;20129;-63
2021/06/05 04:19:34;;;;;;;8.05;3.00;;;;;;;15.15;100.00;97128.38;4981456;28;20054;-63
2021/06/05 04:21:59;;;;;;;6.03;3.50;;;;;;;15.44;100.00;97123.78;4983584;28;20066;-62
2021/06/05 04:24:25;;;;;;;7.20;3.75;;;;;;;15.35;100.00;97126.09;4977047;28;20103;-63
2021/06/05 04:26:51;;;;;;;4.70;3.13;;;;;;;15.67;99.94;97126.22;4983698;28;20511;-64
2021/06/05 04:29:17;;;;;;;6.45;2.78;;;;;;;15.88;98.90;97130.25;4976153;28;20054;-64
2021/06/05 04:31:42;;;;;;;6.35;3.30;;;;;;;16.16;97.11;97115.69;4982699;28;20050;-65
2021/06/05 04:34:07;;;;;;;7.95;3.33;;;;;;;16.38;95.08;97124.00;4991112;28;20049;-64
2021/06/05 04:36:34;;;;;;;6.97;3.95;;;;;;;15.99;94.46;97120.03;4984972;28;20057;-64
2021/06/05 04:39:00;;;;;;;9.23;3.10;;;;;;;15.68;96.72;97121.47;4982610;28;20042;-63
2021/06/05 04:41:26;;;;;;;5.90;3.33;;;;;;;15.56;97.34;97127.38;4978335;28;20046;-63
2021/06/05 04:43:51;;;;;;;4.95;3.22;;;;;;;15.62;98.25;97121.06;4986083;28;20045;-63
2021/06/05 04:46:17;;;;;;;10.10;3.80;;;;;;;15.55;97.75;97123.81;4979783;28;20070;-64
2021/06/05 04:48:45;;;;;;;6.45;3.25;;;;;;;15.29;98.95;97114.66;4978247;28;20109;-63
2021/06/05 04:51:13;;;;;;;9.00;3.30;;;;;;;15.28;99.67;97115.03;4978654;28;20046;-63
2021/06/05 04:53:39;;;;;;;6.15;3.53;;;;;;;15.26;99.95;97117.38;4984023;28;20056;-61
2021/06/05 04:56:04;;;;;;;9.43;3.45;;;;;;;15.19;99.97;97123.66;4979899;28;20138;-60
2021/06/05 04:58:30;;;;;;;8.90;3.13;;;;;;;15.27;100.00;97117.00;4984544;28;20651;-64
2021/06/05 05:00:57;;;;;;;8.73;3.58;;;;;;;15.09;99.75;97125.19;4963591;28;20042;-63
2021/06/05 05:03:25;;;;;;;7.15;3.60;;;;;;;15.07;100.00;97122.03;4975522;28;20050;-62
2021/06/05 05:05:53;;;;;;;7.18;3.60;;;;;;;15.19;100.00;97128.38;4982779;28;20034;-63
2021/06/05 05:08:19;;;;;;;5.70;3.13;;;;;;;15.34;100.00;97127.28;4976809;28;20042;-61
2021/06/05 05:10:48;;;;;;;6.40;3.35;;;;;;;15.62;100.00;97131.34;4982740;28;20583;-63
2021/06/05 05:13:22;;;;;;;8.52;3.25;;;;;;;15.79;99.56;97136.16;4987343;28;20368;-62
2021/06/05 05:15:48;;;;;;;5.22;2.90;;;;;;;16.00;99.11;97134.63;4982542;28;20040;-61
2021/06/05 05:18:14;;;;;;;5.97;3.00;;;;;;;16.16;98.23;97137.00;4976452;28;20046;-61
2021/06/05 05:20:41;;;;;;;5.40;3.00;;;;;;;16.44;95.77;97130.72;4982273;28;20035;-61
2021/06/05 05:23:09;;;;;;;6.70;3.33;;;;;;;16.67;94.55;97135.81;4976885;28;20125;-61
2021/06/05 05:25:37;;;;;;;4.72;2.80;;;;;;;16.88;93.51;97140.59;4981276;28;20042;-61
2021/06/05 05:28:03;;;;;;;8.75;3.53;;;;;;;17.01;93.00;97138.19;4980124;28;20491;-62
2021/06/05 05:30:36;;;;;;;5.68;3.15;;;;;;;17.00;90.90;97131.09;4980640;28;20050;-61
2021/06/05 05:33:02;;;;;;;6.78;3.17;;;;;;;16.74;92.40;97133.06;4978401;28;20046;-62
2021/06/05 05:35:27;;;;;;;4.93;2.83;;;;;;;16.87;93.09;97141.78;4978711;28;20380;-61
2021/06/05 05:37:53;;;;;;;6.95;3.40;;;;;;;16.99;91.71;97135.81;4982834;28;20092;-62
2021/06/05 05:40:21;;;;;;;6.78;3.42;;;;;;;16.65;93.11;97132.69;4974091;28;20420;-62
2021/06/05 05:42:47;;;;;;;7.15;3.33;;;;;;;16.53;95.34;97135.84;4980213;28;20065;-61
2021/06/05 05:45:13;;;;;;;4.47;2.80;;;;;;;16.71;94.48;97144.13;4976479;28;20396;-62
2021/06/05 05:47:38;;;;;;;6.60;2.92;;;;;;;16.91;92.79;97137.03;4981232;28;20046;-62
2021/06/05 05:50:07;;;;;;;6.22;2.80;;;;;;;17.08;91.13;97145.69;4975216;28;20046;-62
2021/06/05 05:52:32;;;;;;;4.53;2.22;;;;;;;17.14;91.29;97150.44;4980586;28;20046;-62
2021/06/05 05:54:58;;;;;;;4.13;2.30;;;;;;;17.30;91.12;97160.25;4981766;28;20435;-64
2021/06/05 05:57:23;;;;;;;4.95;2.42;;;;;;;17.59;89.79;97155.41;4975844;28;20216;-62
2021/06/05 05:59:49;;;;;;;4.90;2.38;;;;;;;17.60;88.59;97159.75;4979197;28;20126;-60
2021/06/05 06:02:14;;;;;;;8.52;3.20;;;;;;;17.88;88.23;97156.13;4976471;28;20042;-63
2021/06/05 06:04:39;;;;;;;5.65;2.30;;;;;;;18.15;86.39;97163.88;4981283;28;20129;-62
2021/06/05 06:07:05;;;;;;;6.97;2.88;;;;;;;18.00;85.62;97160.38;4956325;28;20136;-61
2021/06/05 06:09:30;;;;;;;4.85;2.78;;;;;;;18.02;86.68;97162.75;4978073;28;20042;-61
2021/06/05 06:11:56;;;;;;;7.22;2.35;;;;;;;18.23;85.50;97159.84;4980383;28;20038;-62
2021/06/05 06:14:21;;;;;;;3.42;2.35;;;;;;;18.57;84.30;97159.22;4974015;28;21257;-62
2021/06/05 06:16:48;;;;;;;6.15;2.58;;;;;;;18.61;84.14;97161.97;4980461;28;20039;-62
2021/06/05 06:19:14;;;;;;;5.60;2.10;;;;;;;19.04;82.71;97161.63;4975032;28;20503;-62
2021/06/05 06:21:41;;;;;;;6.57;2.50;;;;;;;19.31;81.09;97172.06;4981529;28;20045;-62
2021/06/05 06:24:07;;;;;;;4.63;2.17;;;;;;;19.58;79.53;97169.38;4975571;28;20396;-62
2021/06/05 06:26:33;;;;;;;5.68;2.08;;;;;;;19.60;78.65;97166.97;4979655;28;20395;-63
2021/06/05 06:29:13;;;;;;;3.03;1.90;;;;;;;19.58;78.38;97169.38;4980640;28;20074;-61
2021/06/05 06:31:40;;;;;;;3.25;2.28;;;;;;;19.53;79.21;97164.25;4980496;28;20416;-62
2021/06/05 06:34:06;;;;;;;7.15;1.88;;;;;;;19.47;79.08;97166.72;4975319;28;20046;-61
2021/06/05 06:36:32;;;;;;;4.03;1.98;;;;;;;19.00;80.36;97167.19;4992386;28;20042;-62
2021/06/05 06:38:57;;;;;;;3.88;2.30;;;;;;;19.04;80.70;97169.94;4982864;28;20043;-62
2021/06/05 06:41:27;;;;;;;5.07;2.40;;;;;;;18.97;80.79;97172.78;4974495;28;20632;-63
2021/06/05 06:43:54;;;;;;;3.15;2.00;;;;;;;18.85;80.73;97179.63;4980453;28;20042;-63
2021/06/05 06:46:25;;;;;;;6.78;1.88;;;;;;;18.71;81.52;97188.84;4975861;28;20097;-62
2021/06/05 06:48:57;;;;;;;4.15;2.08;;;;;;;18.59;83.38;97192.09;4980420;28;20069;-62
2021/06/05 06:51:25;;;;;;;4.75;2.50;;;;;;;18.31;84.12;97196.63;4986527;28;20118;-63
2021/06/05 06:53:50;;;;;;;5.55;2.35;;;;;;;17.96;85.38;97190.88;4980066;28;20069;-62
2021/06/05 06:56:16;;;;;;;6.28;2.67;;;;;;;17.84;86.94;97191.31;4973625;28;20467;-62
2021/06/05 06:58:42;;;;;;;3.60;2.40;;;;;;;17.87;86.79;97189.75;4977525;28;20038;-63
2021/06/05 07:01:09;;;;;;;7.85;3.50;;;;;;;18.08;86.31;97191.66;4976987;28;20525;-63
2021/06/05 07:03:35;;;;;;;8.05;2.40;;;;;;;18.29;85.70;97187.94;4983488;28;20046;-62
2021/06/05 07:06:01;;;;;;;6.45;2.65;;;;;;;18.31;84.05;97193.84;4984653;28;20551;-63
2021/06/05 07:08:32;;;;;;;6.65;2.53;;;;;;;18.20;84.91;97191.16;4979959;28;20108;-61
2021/06/05 07:11:00;;;;;;;3.05;2.45;;;;;;;18.16;85.11;97198.72;4983539;28;20057;-62
2021/06/05 07:13:27;;;;;;;4.40;2.25;;;;;;;18.30;84.72;97195.06;4978668;28;20046;-63
2021/06/05 07:15:54;;;;;;;6.68;2.40;;;;;;;18.36;84.07;97196.22;4984843;28;20045;-63
2021/06/05 07:18:21;;;;;;;4.63;2.75;;;;;;;18.50;83.83;97198.09;4989073;28;20050;-62
2021/06/05 07:20:49;;;;;;;7.32;2.50;;;;;;;18.54;83.85;97199.63;4991553;28;20149;-61
2021/06/05 07:23:17;;;;;;;5.85;2.60;;;;;;;18.49;83.61;97202.88;4998412;28;20088;-65
2021/06/05 07:25:42;;;;;;;5.03;3.15;;;;;;;18.51;83.42;97200.47;5000108;28;20046;-64
2021/06/05 07:28:11;;;;;;;6.65;2.42;;;;;;;18.44;83.20;97205.25;4977840;28;20113;-61
2021/06/05 07:30:37;;;;;;;5.07;2.60;;;;;;;18.44;83.54;97214.38;4984904;28;20601;-63
2021/06/05 07:33:02;;;;;;;4.93;3.05;;;;;;;18.28;83.47;97211.31;4981011;28;20050;-65
2021/06/05 07:35:27;;;;;;;4.70;3.00;;;;;;;18.29;84.16;97213.69;4980244;28;20046;-64
2021/06/05 07:37:53;;;;;;;7.00;3.00;;;;;;;18.29;83.91;97213.69;4982940;28;20038;-64
2021/06/05 07:40:18;;;;;;;7.38;3.03;;;;;;;18.38;83.50;97212.44;4979609;28;20057;-63
2021/06/05 07:42:44;;;;;;;6.82;3.30;;;;;;;18.18;83.92;97212.16;4983327;28;20044;-63
2021/06/05 07:45:10;;;;;;;4.32;3.00;;;;;;;18.13;84.16;97227.22;4979230;28;20062;-63
2021/06/05 07:47:36;;;;;;;5.57;2.67;;;;;;;18.06;84.48;97218.94;4978748;28;20042;-62
2021/06/05 07:50:05;;;;;;;8.60;2.60;;;;;;;18.15;84.44;97219.31;4966144;28;20109;-62
2021/06/05 07:52:30;;;;;;;7.40;3.22;;;;;;;18.04;84.38;97216.59;4967961;28;20046;-60
2021/06/05 07:54:56;;;;;;;5.10;2.70;;;;;;;18.05;84.84;97222.94;4984060;28;20042;-63
2021/06/05 07:57:21;;;;;;;6.32;2.83;;;;;;;18.12;84.41;97220.13;4974820;28;20239;-63
2021/06/05 07:59:47;;;;;;;5.32;2.88;;;;;;;17.58;84.54;97221.09;4983532;28;20073;-62
2021/06/05 08:02:13;;;;;;;4.93;2.78;;;;;;;17.42;86.51;97229.06;4977511;28;20038;-63
2021/06/05 08:04:39;;;;;;;5.40;3.33;;;;;;;17.61;86.84;97221.47;4984204;28;20042;-62
2021/06/05 08:07:05;;;;;;;4.72;2.58;;;;;;;17.67;86.78;97225.44;4977524;28;20412;-61
2021/06/05 08:09:31;;;;;;;7.03;2.83;;;;;;;17.70;86.53;97235.69;4983557;28;20048;-63
2021/06/05 08:11:57;;;;;;;5.25;2.60;;;;;;;17.55;86.25;97234.94;4981303;28;20050;-63
2021/06/05 08:14:22;;;;;;;5.78;2.60;;;;;;;17.65;86.14;97227.81;4977285;28;21025;-62
2021/06/05 08:16:48;;;;;;;4.03;2.55;;;;;;;17.96;85.45;97232.47;4981474;28;20513;-63
2021/06/05 08:19:14;;;;;;;4.18;2.50;;;;;;;18.34;83.86;97229.09;4978805;28;20046;-63
2021/06/05 08:21:42;;;;;;;5.40;2.42;;;;;;;18.49;83.11;97236.16;4981810;28;20042;-61
2021/06/05 08:24:09;;;;;;;4.43;1.85;;;;;;;18.75;81.57;97235.97;4976341;28;20551;-62
2021/06/05 08:26:35;;;;;;;5.15;2.55;;;;;;;18.94;81.36;97238.22;4981643;28;20046;-63
2021/06/05 08:29:01;;;;;;;3.80;1.98;;;;;;;18.90;80.74;97235.47;4982309;28;20518;-63
2021/06/05 08:31:26;;;;;;;5.57;2.28;;;;;;;19.02;80.48;97238.97;4977406;28;20104;-62
2021/06/05 08:33:52;;;;;;;5.10;2.25;;;;;;;19.21;79.48;97235.63;4982073;28;20142;-62
2021/06/05 08:36:22;;;;;;;4.80;1.98;;;;;;;19.52;77.67;97240.47;4976011;28;20507;-61
2021/06/05 08:38:47;;;;;;;5.40;2.00;;;;;;;19.46;77.18;97240.13;4974570;28;20395;-63
2021/06/05 08:41:18;;;;;;;3.83;1.90;;;;;;;19.50;76.98;97238.13;4974565;28;20097;-63
2021/06/05 08:43:49;;;;;;;4.47;1.90;;;;;;;19.59;76.73;97248.72;4976633;28;20042;-63
2021/06/05 08:46:21;;;;;;;3.95;2.03;;;;;;;19.62;76.09;97247.91;4974627;28;20088;-63
2021/06/05 08:48:47;;;;;;;3.65;1.90;;;;;;;19.79;75.56;97235.84;4974236;28;20055;-62
2021/06/05 08:51:21;;;;;;;5.55;1.73;;;;;;;19.97;75.02;97238.41;4976482;28;20046;-62
2021/06/05 08:53:47;;;;;;;5.22;1.50;;;;;;;20.23;74.48;97236.09;4979736;28;20503;-63
2021/06/05 08:56:21;;;;;;;5.32;1.77;;;;;;;20.38;72.75;97231.91;4977204;28;20123;-61
2021/06/05 08:58:52;;;;;;;4.43;1.90;;;;;;;20.56;72.48;97239.19;4973746;28;20047;-61
2021/06/05 09:01:27;;;;;;;3.05;1.80;;;;;;;20.50;71.76;97236.09;4977258;28;20101;-63
2021/06/05 09:03:57;;;;;;;5.35;1.95;;;;;;;20.33;72.79;97237.13;4981441;28;20137;-62
2021/06/05 09:06:40;;;;;;;6.20;2.55;;;;;;;20.22;73.65;97242.84;4958666;28;21400;-64
2021/06/05 09:09:09;;;;;;;4.95;1.73;;;;;;;20.17;73.79;97248.88;4984854;28;20058;-64
2021/06/05 09:11:35;;;;;;;6.32;1.50;;;;;;;20.04;75.01;97240.28;4981159;28;20046;-61
2021/06/05 09:14:01;;;;;;;10.70;1.83;;;;;;;20.22;73.32;97238.09;4981122;28;20108;-65
2021/06/05 09:16:53;;;;;;;4.97;2.38;;;;;;;20.40;72.64;97240.63;4974859;28;20050;-61
2021/06/05 09:19:31;;;;;;;4.85;2.03;;;;;;;20.42;72.50;97246.56;4973509;28;20049;-64
2021/06/05 09:22:05;;;;;;;5.05;1.80;;;;;;;20.22;72.96;97245.63;4979044;28;20058;-64
2021/06/05 09:24:32;;;;;;;4.30;2.10;;;;;;;20.12;73.68;97252.13;4978759;28;20043;-64
2021/06/05 09:27:02;;;;;;;4.07;1.63;;;;;;;20.14;73.44;97253.28;4979846;28;20048;-63
2021/06/05 09:29:30;;;;;;;5.50;2.00;;;;;;;20.11;74.26;97248.53;4976209;28;20034;-64
2021/06/05 09:32:08;;;;;;;6.18;2.10;;;;;;;20.12;73.76;97247.34;4981156;28;20053;-63
2021/06/05 09:34:40;;;;;;;6.47;1.92;;;;;;;20.35;72.31;97251.44;4976200;28;20049;-63
2021/06/05 09:37:24;;;;;;;5.15;1.80;;;;;;;20.44;72.99;97255.25;4976041;28;20121;-63
2021/06/05 09:39:58;;;;;;;4.53;1.92;;;;;;;20.39;73.43;97243.81;4976856;28;20121;-63
2021/06/05 09:42:31;;;;;;;4.07;2.20;;;;;;;20.39;71.85;97252.94;4975376;28;20049;-63
2021/06/05 09:44:58;;;;;;;3.47;2.20;;;;;;;20.04;73.61;97245.84;4974477;28;20137;-63
2021/06/05 09:47:28;;;;;;;3.45;2.03;;;;;;;19.88;75.31;97251.22;4971219;28;20581;-62
2021/06/05 09:50:14;;;;;;;3.63;2.30;;;;;;;19.91;75.24;97245.59;4984877;28;20118;-61
2021/06/05 09:52:40;;;;;;;7.32;2.30;;;;;;;20.09;74.22;97242.59;4991745;28;20751;-63
2021/06/05 09:55:26;;;;;;;3.95;2.30;;;;;;;19.92;75.17;97238.84;4983064;28;20125;-62
2021/06/05 09:57:53;;;;;;;6.22;2.20;;;;;;;20.00;73.61;97248.66;4979906;28;20039;-60
2021/06/05 10:00:37;;;;;;;4.43;2.45;;;;;;;20.01;74.15;97244.69;4974524;28;20042;-62
2021/06/05 10:03:20;;;;;;;6.43;2.60;;;;;;;20.08;74.62;97241.06;4973535;28;20039;-62
2021/06/05 10:05:49;;;;;;;4.68;2.38;;;;;;;20.11;74.23;97239.41;4956072;28;20215;-62
2021/06/05 10:08:20;;;;;;;4.05;1.88;;;;;;;20.78;72.03;97243.28;4975517;28;20227;-60
2021/06/05 10:10:56;;;;;;;5.65;2.90;;;;;;;21.07;70.14;97233.66;4978929;28;20178;-60
2021/06/05 10:13:25;;;;;;;7.05;2.70;;;;;;;21.09;70.64;97234.81;4971092;28;20498;-59
2021/06/05 10:15:57;;;;;;;3.42;2.13;;;;;;;20.59;70.89;97244.72;4979972;28;20049;-60
2021/06/05 10:18:47;;;;;;;4.30;2.65;;;;;;;20.65;72.20;97245.03;4975308;28;20547;-60
2021/06/05 10:21:37;;;;;;;3.50;2.33;;;;;;;19.46;75.42;97245.69;4978505;28;20049;-61
2021/06/05 10:24:27;;;;;;;4.18;2.10;;;;;;;20.19;73.22;97238.13;4974850;28;20110;-60
2021/06/05 10:26:55;;;;;;;6.70;2.50;;;;;;;20.05;74.16;97250.22;4980174;28;20073;-60
2021/06/05 10:29:43;;;;;;;4.65;2.17;;;;;;;20.44;72.47;97241.34;4975245;28;20042;-61
2021/06/05 10:32:15;;;;;;;6.32;1.90;;;;;;;20.54;73.49;97236.81;4974983;28;20109;-61
2021/06/05 10:34:45;;;;;;;3.67;2.05;;;;;;;20.67;71.77;97239.06;4979216;28;20045;-61
2021/06/05 10:37:15;;;;;;;;;;;;;;;21.16;69.13;97234.69;4972458;28;20042;-60
2021/06/05 10:39:44;;;;;;;3.88;1.23;;;;;;;21.13;69.21;97227.19;4979865;28;19928;-61
2021/06/05 10:42:18;;;;;;;3.15;1.40;;;;;;;21.12;67.68;97236.75;4974698;28;20050;-61
2021/06/05 10:44:44;;;;;;;1.67;1.05;;;;;;;20.77;69.13;97232.56;4976838;28;20093;-62
2021/06/05 10:47:18;;;;;;;3.65;1.38;;;;;;;20.70;70.09;97227.88;4975610;28;20046;-61
2021/06/05 10:49:57;;;;;;;4.95;1.60;;;;;;;20.44;69.99;97226.66;4980911;28;20038;-59
2021/06/05 10:52:28;;;;;;;3.95;1.40;;;;;;;20.30;69.92;97219.28;4976746;28;20116;-61
2021/06/05 10:55:05;;;;;;;3.30;1.48;;;;;;;19.78;71.77;97222.34;4980232;28;20066;-62
2021/06/05 10:58:12;;;;;;;6.03;1.48;;;;;;;19.78;72.96;97216.78;4977203;28;20046;-62
2021/06/05 11:00:53;;;;;;;4.38;1.33;;;;;;;19.83;73.11;97225.47;4979771;28;20051;-60
2021/06/05 11:03:22;;;;;;;6.25;2.45;;;;;;;19.70;73.62;97216.06;4974540;28;20042;-61
2021/06/05 11:05:59;;;;;;;2.85;1.80;;;;;;;19.49;74.34;97214.31;4980143;28;20565;-62
2021/06/05 11:08:24;;;;;;;6.20;1.90;;;;;;;19.68;74.13;97216.47;4974090;28;20892;-60
2021/06/05 11:10:59;;;;;;;4.17;1.80;;;;;;;19.41;74.33;97219.16;4977834;28;20657;-61
2021/06/05 11:13:37;;;;;;;3.05;1.35;;;;;;;19.42;73.00;97217.16;4975461;28;20294;-60
2021/06/05 11:16:14;;;;;;;4.32;1.70;;;;;;;19.26;74.74;97212.94;4976005;28;20404;-61
2021/06/05 11:18:47;;;;;;;4.10;1.00;;;;;;;19.56;72.38;97208.69;4980468;28;20045;-62
2021/06/05 11:21:43;;;;;;;1.15;0.90;;;;;;;19.39;73.49;97210.47;4975801;28;20518;-61
2021/06/05 11:24:19;;;;;;;2.70;1.10;;;;;;;19.76;72.79;97211.66;4973165;28;20046;-61
2021/06/05 11:26:50;;;;;;;3.92;1.05;;;;;;;19.84;72.57;97209.56;4982016;28;20133;-62
2021/06/05 11:29:19;;;;;;;2.47;1.30;;;;;;;19.45;73.93;97219.13;4973709;28;20094;-60
2021/06/05 11:31:47;;;;;;;3.60;1.67;;;;;;;18.95;74.97;97222.38;4972390;28;20073;-63
2021/06/05 11:34:31;;;;;;;2.58;1.05;;;;;;;18.96;75.49;97221.16;4975107;28;20046;-61
2021/06/05 11:37:02;;;;;;;2.10;1.15;;;;;;;18.83;75.32;97220.88;4980890;28;20046;-62
2021/06/05 11:39:30;;;;;;;2.53;1.00;;;;;;;18.57;75.90;97227.78;4976653;28;20070;-62
2021/06/05 11:41:57;;;;;;;2.67;1.45;;;;;;;18.90;75.17;97226.38;4979332;28;20228;-61